Time;durP1;ratioP1;P1;durP2;ratioP2;P2;SDS_P1;SDS_P2;PMS_P1;PMS_P2;Temp;Humidity;BMP_temperature;BMP_pressure;BME280_temperature;BME280_humidity;BME280_pressure;Samples;Min_cycle;Max_cycle;Signal;HPM_P1;HPM_P2
2023/01/11 00:01:53;;;;;;;28.23;14.30;;;;;;;;;;770605;182;918983;-60
2023/01/11 00:04:19;;;;;;;32.17;16.17;;;;;;;;;;774014;181;919991;-65
2023/01/11 00:06:45;;;;;;;29.03;16.77;;;;;;;;;;771102;182;918626;-66
2023/01/11 00:09:11;;;;;;;27.90;17.00;;;;;;;;;;773321;180;1021657;-65
2023/01/11 00:11:37;;;;;;;32.20;18.90;;;;;;;;;;773220;180;919778;-60
2023/01/11 00:14:03;;;;;;;34.20;18.77;;;;;;;;;;774029;180;919414;-65
2023/01/11 00:16:28;;;;;;;29.75;18.95;;;;;;;;;;771453;181;919061;-60
2023/01/11 00:18:54;;;;;;;31.87;20.77;;;;;;;;;;771604;181;918859;-65
2023/01/11 00:21:21;;;;;;;43.93;22.87;;;;;;;;;;775568;180;918758;-65
2023/01/11 00:23:46;;;;;;;40.60;24.10;;;;;;;;;;770447;180;919854;-60
2023/01/11 00:26:12;;;;;;;46.33;24.00;;;;;;;;;;770901;182;919097;-59
2023/01/11 00:28:38;;;;;;;40.15;28.23;;;;;;;;;;778320;182;913526;-59
2023/01/11 00:31:03;;;;;;;40.50;24.60;;;;;;;;;;773005;181;920274;-64
2023/01/11 00:33:29;;;;;;;45.87;26.47;;;;;;;;;;774204;179;919586;-62
2023/01/11 00:35:55;;;;;;;49.23;26.00;;;;;;;;;;779409;181;916910;-65
2023/01/11 00:40:53;;;;;;;46.03;27.60;;;;;;;;;;772187;179;1022861;-59
2023/01/11 00:48:22;;;;;;;49.03;26.17;;;;;;;;;;778777;180;817809;-64
2023/01/11 00:50:47;;;;;;;44.27;24.80;;;;;;;;;;765653;181;916112;-67
2023/01/11 00:53:13;;;;;;;50.27;30.10;;;;;;;;;;775499;181;919175;-65
2023/01/11 00:55:39;;;;;;;50.13;26.67;;;;;;;;;;778339;181;905590;-59
2023/01/11 00:58:05;;;;;;;43.30;22.97;;;;;;;;;;773877;182;918558;-59
2023/01/11 01:00:31;;;;;;;41.60;23.07;;;;;;;;;;769067;181;918924;-59
2023/01/11 01:02:57;;;;;;;39.63;23.97;;;;;;;;;;777891;180;915601;-59
2023/01/11 01:05:23;;;;;;;41.03;26.23;;;;;;;;;;772117;181;918666;-64
2023/01/11 01:07:48;;;;;;;43.77;24.40;;;;;;;;;;763612;180;918318;-64
2023/01/11 01:10:14;;;;;;;38.10;22.15;;;;;;;;;;777514;181;919498;-60
2023/01/11 01:15:12;;;;;;;27.67;16.60;;;;;;;;;;772769;181;919689;-65
2023/01/11 01:17:38;;;;;;;26.30;17.40;;;;;;;;;;771664;180;919197;-65
2023/01/11 01:20:04;;;;;;;30.60;18.23;;;;;;;;;;777042;182;918727;-66
2023/01/11 01:22:30;;;;;;;35.47;22.03;;;;;;;;;;774107;180;919642;-65
2023/01/11 01:24:56;;;;;;;40.75;22.62;;;;;;;;;;768899;180;920177;-64
2023/01/11 01:27:21;;;;;;;31.13;19.50;;;;;;;;;;774823;180;817694;-59
2023/01/11 01:29:47;;;;;;;39.20;21.97;;;;;;;;;;771274;180;917053;-59
2023/01/11 01:32:13;;;;;;;33.90;19.63;;;;;;;;;;766460;181;916839;-59
2023/01/11 01:34:39;;;;;;;52.77;29.60;;;;;;;;;;773744;182;918940;-59
2023/01/11 01:37:05;;;;;;;42.90;26.10;;;;;;;;;;777661;181;913703;-65
2023/01/11 01:39:31;;;;;;;42.77;26.77;;;;;;;;;;769337;182;920046;-59
2023/01/11 01:41:57;;;;;;;36.97;20.50;;;;;;;;;;759585;179;918525;-60
2023/01/11 01:44:28;;;;;;;30.53;19.27;;;;;;;;;;759873;185;917476;-59
2023/01/11 01:46:54;;;;;;;31.90;19.57;;;;;;;;;;763252;181;918796;-65
2023/01/11 01:49:20;;;;;;;36.67;20.30;;;;;;;;;;770714;181;918604;-60
2023/01/11 01:51:46;;;;;;;39.93;22.43;;;;;;;;;;765206;182;922637;-65
2023/01/11 01:54:12;;;;;;;41.00;25.17;;;;;;;;;;765808;182;915227;-59
2023/01/11 01:56:39;;;;;;;36.53;22.20;;;;;;;;;;760510;182;899747;-59
2023/01/11 01:59:06;;;;;;;35.73;20.67;;;;;;;;;;758040;182;921357;-59
2023/01/11 02:04:03;;;;;;;29.33;16.83;;;;;;;;;;768498;181;919002;-59
2023/01/11 02:06:29;;;;;;;29.50;17.50;;;;;;;;;;769812;181;919154;-65
2023/01/11 02:08:55;;;;;;;27.00;18.50;;;;;;;;;;768071;181;918944;-59
2023/01/11 02:13:52;;;;;;;33.07;21.10;;;;;;;;;;768145;182;919171;-65
2023/01/11 02:16:18;;;;;;;34.63;22.80;;;;;;;;;;766221;182;922331;-59
2023/01/11 02:18:44;;;;;;;27.17;17.67;;;;;;;;;;764211;182;1017534;-65
2023/01/11 02:21:28;;;;;;;25.40;18.07;;;;;;;;;;772313;181;843977;-65
2023/01/11 02:23:59;;;;;;;28.02;18.27;;;;;;;;;;762308;181;915386;-60
2023/01/11 02:26:40;;;;;;;29.57;16.40;;;;;;;;;;758201;182;821739;-65
2023/01/11 02:29:07;;;;;;;32.53;18.17;;;;;;;;;;776138;178;919095;-60
2023/01/11 02:31:33;;;;;;;25.47;15.07;;;;;;;;;;768675;181;818511;-66
2023/01/11 02:33:59;;;;;;;24.70;14.73;;;;;;;;;;780316;179;816136;-60
2023/01/11 02:36:40;;;;;;;18.13;13.20;;;;;;;;;;773570;181;815576;-66
2023/01/11 02:39:07;;;;;;;20.90;13.20;;;;;;;;;;770073;181;919121;-63
2023/01/11 02:46:57;;;;;;;23.37;13.90;;;;;;;;;;769157;182;919190;-60
2023/01/11 02:49:24;;;;;;;32.40;16.07;;;;;;;;;;770770;184;817440;-60
2023/01/11 02:51:50;;;;;;;33.67;17.60;;;;;;;;;;774475;180;916984;-64
2023/01/11 02:54:17;;;;;;;28.07;15.67;;;;;;;;;;766302;182;919525;-65
2023/01/11 02:56:41;;;;;;;22.73;15.00;;;;;;;;;;762139;182;918790;-67
2023/01/11 02:59:07;;;;;;;23.63;14.00;;;;;;;;;;777518;182;919306;-65
2023/01/11 03:01:33;;;;;;;23.27;12.20;;;;;;;;;;772385;181;918869;-65
2023/01/11 03:03:59;;;;;;;29.50;15.17;;;;;;;;;;770296;180;919311;-60
2023/01/11 03:06:27;;;;;;;26.90;15.07;;;;;;;;;;776005;181;919134;-60
2023/01/11 03:09:07;;;;;;;24.97;14.57;;;;;;;;;;764538;184;920848;-60
2023/01/11 03:14:09;;;;;;;23.45;13.65;;;;;;;;;;771326;181;919133;-61
2023/01/11 03:16:46;;;;;;;27.43;15.10;;;;;;;;;;769779;182;919233;-60
2023/01/11 03:19:28;;;;;;;26.13;14.40;;;;;;;;;;761799;182;920344;-61
2023/01/11 03:21:53;;;;;;;24.23;16.07;;;;;;;;;;766291;180;910537;-66
2023/01/11 03:24:22;;;;;;;21.97;13.93;;;;;;;;;;775029;181;918438;-61
2023/01/11 03:27:04;;;;;;;20.40;12.50;;;;;;;;;;772781;181;920037;-67
2023/01/11 03:29:32;;;;;;;24.97;12.90;;;;;;;;;;764083;179;920396;-61
2023/01/11 03:32:03;;;;;;;21.93;12.03;;;;;;;;;;758301;182;799512;-70
2023/01/11 03:34:32;;;;;;;20.33;12.10;;;;;;;;;;770710;181;818814;-61
2023/01/11 03:36:58;;;;;;;21.90;13.13;;;;;;;;;;771106;182;817683;-68
2023/01/11 03:39:24;;;;;;;24.73;13.70;;;;;;;;;;771272;180;914518;-68
2023/01/11 03:41:49;;;;;;;22.53;13.47;;;;;;;;;;769338;181;917439;-67
2023/01/11 03:44:15;;;;;;;22.67;13.87;;;;;;;;;;776740;180;816644;-61
2023/01/11 03:46:43;;;;;;;24.73;14.53;;;;;;;;;;769212;180;919729;-67
2023/01/11 03:49:10;;;;;;;22.33;14.32;;;;;;;;;;764839;184;919309;-61
2023/01/11 03:51:44;;;;;;;19.95;12.55;;;;;;;;;;767852;182;918048;-63
2023/01/11 03:54:10;;;;;;;20.37;12.03;;;;;;;;;;773792;181;718173;-68
2023/01/11 03:56:37;;;;;;;21.50;12.00;;;;;;;;;;775072;180;917843;-68
2023/01/11 03:59:02;;;;;;;18.80;12.10;;;;;;;;;;772370;179;915680;-67
2023/01/11 04:01:28;;;;;;;20.93;13.33;;;;;;;;;;771689;182;908310;-67
2023/01/11 04:03:54;;;;;;;22.05;11.95;;;;;;;;;;769135;180;920414;-66
2023/01/11 04:06:20;;;;;;;24.23;13.20;;;;;;;;;;771459;179;919095;-66
2023/01/11 04:08:46;;;;;;;18.83;12.03;;;;;;;;;;771938;181;917390;-65
2023/01/11 04:11:12;;;;;;;20.33;12.43;;;;;;;;;;777541;181;919955;-62
2023/01/11 04:13:38;;;;;;;18.50;11.03;;;;;;;;;;758402;181;920730;-65
2023/01/11 04:16:03;;;;;;;24.50;13.03;;;;;;;;;;765462;182;918549;-61
2023/01/11 04:18:29;;;;;;;24.33;14.40;;;;;;;;;;765994;182;923216;-67
2023/01/11 04:20:55;;;;;;;21.83;13.73;;;;;;;;;;768478;182;920392;-61
2023/01/11 04:23:21;;;;;;;37.53;17.40;;;;;;;;;;764876;183;922052;-61
2023/01/11 04:25:47;;;;;;;21.30;13.33;;;;;;;;;;772118;182;921341;-62
2023/01/11 04:28:13;;;;;;;19.63;11.00;;;;;;;;;;768751;182;817365;-62
2023/01/11 04:30:38;;;;;;;16.13;11.27;;;;;;;;;;764179;182;918478;-67
2023/01/11 04:33:04;;;;;;;14.57;9.40;;;;;;;;;;764106;181;918839;-66
2023/01/11 04:35:30;;;;;;;14.73;9.40;;;;;;;;;;764114;181;816997;-62
2023/01/11 04:37:56;;;;;;;18.93;10.57;;;;;;;;;;771069;181;919096;-62
2023/01/11 04:40:22;;;;;;;19.23;11.30;;;;;;;;;;768094;179;1024838;-63
2023/01/11 04:42:48;;;;;;;19.00;10.23;;;;;;;;;;770787;181;915560;-62
2023/01/11 04:45:13;;;;;;;17.60;10.63;;;;;;;;;;769836;182;918083;-67
2023/01/11 04:47:39;;;;;;;19.80;11.20;;;;;;;;;;767302;182;817091;-63
2023/01/11 04:50:06;;;;;;;22.67;11.67;;;;;;;;;;773826;182;915452;-63
2023/01/11 04:52:31;;;;;;;20.20;10.23;;;;;;;;;;771626;182;918603;-69
2023/01/11 04:54:57;;;;;;;18.23;9.90;;;;;;;;;;767743;181;918579;-69
2023/01/11 04:57:24;;;;;;;17.80;11.13;;;;;;;;;;777655;179;915259;-62
2023/01/11 04:59:49;;;;;;;15.90;10.97;;;;;;;;;;774069;179;920301;-62
2023/01/11 05:02:15;;;;;;;21.40;12.17;;;;;;;;;;772055;181;915324;-62
2023/01/11 05:04:41;;;;;;;19.57;11.80;;;;;;;;;;782593;179;625668;-62
2023/01/11 05:07:07;;;;;;;21.17;12.03;;;;;;;;;;770375;180;715119;-67
2023/01/11 05:09:32;;;;;;;17.53;10.17;;;;;;;;;;768361;181;919199;-60
2023/01/11 05:11:58;;;;;;;17.83;12.07;;;;;;;;;;768052;181;921232;-66
2023/01/11 05:14:24;;;;;;;14.43;10.33;;;;;;;;;;776105;179;626035;-66
2023/01/11 05:16:50;;;;;;;17.00;11.17;;;;;;;;;;770763;181;916006;-60
2023/01/11 05:19:16;;;;;;;16.85;10.95;;;;;;;;;;769490;180;1088237;-67
2023/01/11 05:21:42;;;;;;;14.80;10.10;;;;;;;;;;777469;182;835345;-66
2023/01/11 05:24:07;;;;;;;15.07;10.13;;;;;;;;;;768785;180;916254;-61
2023/01/11 05:26:33;;;;;;;14.00;9.17;;;;;;;;;;763838;181;918972;-60
2023/01/11 05:28:59;;;;;;;16.03;10.03;;;;;;;;;;774193;181;814425;-60
2023/01/11 05:31:25;;;;;;;14.40;7.60;;;;;;;;;;775138;181;919302;-60
2023/01/11 05:33:51;;;;;;;13.60;7.87;;;;;;;;;;769414;179;919730;-66
2023/01/11 05:36:17;;;;;;;9.83;6.83;;;;;;;;;;760525;181;916845;-60
2023/01/11 05:38:44;;;;;;;12.83;7.57;;;;;;;;;;774120;181;918712;-66
2023/01/11 05:41:10;;;;;;;13.80;7.90;;;;;;;;;;771562;182;920386;-66
2023/01/11 05:45:27;;;;;;;11.53;6.63;;;;;;;;;;772727;181;918266;-66
2023/01/11 05:46:03;;;;;;;8.70;6.57;;;;;;;;;;771778;182;815437;-68
2023/01/11 05:48:29;;;;;;;11.40;6.90;;;;;;;;;;764550;182;932175;-68
2023/01/11 05:50:55;;;;;;;14.17;10.27;;;;;;;;;;771448;181;917888;-68
2023/01/11 05:53:20;;;;;;;12.33;8.10;;;;;;;;;;769047;180;918484;-66
2023/01/11 05:55:52;;;;;;;9.67;7.10;;;;;;;;;;773788;181;817122;-66
2023/01/11 05:58:18;;;;;;;15.00;9.40;;;;;;;;;;768164;181;919163;-66
2023/01/11 06:00:44;;;;;;;16.00;8.53;;;;;;;;;;769908;181;919076;-66
2023/01/11 06:03:10;;;;;;;12.90;8.73;;;;;;;;;;773264;181;919401;-61
2023/01/11 06:05:37;;;;;;;12.23;8.23;;;;;;;;;;767875;181;918638;-61
2023/01/11 06:08:01;;;;;;;15.20;9.00;;;;;;;;;;770756;180;846510;-61
2023/01/11 06:10:27;;;;;;;15.60;11.37;;;;;;;;;;771962;181;920365;-61
2023/01/11 06:13:25;;;;;;;16.73;9.40;;;;;;;;;;774280;176;928550;-61
2023/01/11 06:15:19;;;;;;;19.47;11.73;;;;;;;;;;767064;179;954708;-66
2023/01/11 06:17:45;;;;;;;15.40;11.50;;;;;;;;;;767815;179;818917;-61
2023/01/11 06:20:11;;;;;;;19.55;10.15;;;;;;;;;;770671;181;918536;-67
2023/01/11 06:22:37;;;;;;;16.73;10.95;;;;;;;;;;766791;181;981554;-66
2023/01/11 06:25:03;;;;;;;17.70;10.53;;;;;;;;;;766976;179;915353;-61
2023/01/11 06:27:29;;;;;;;18.43;11.33;;;;;;;;;;771837;181;918879;-61
2023/01/11 06:29:54;;;;;;;17.87;10.00;;;;;;;;;;760900;182;919366;-68
2023/01/11 06:32:20;;;;;;;15.20;8.60;;;;;;;;;;770518;181;919794;-67
2023/01/11 06:34:46;;;;;;;14.43;8.87;;;;;;;;;;769912;181;918882;-66
2023/01/11 06:37:12;;;;;;;15.00;9.73;;;;;;;;;;765466;181;918856;-66
2023/01/11 06:39:38;;;;;;;15.47;9.50;;;;;;;;;;767303;180;919804;-60
2023/01/11 06:42:04;;;;;;;15.83;9.40;;;;;;;;;;769912;179;1114903;-62
2023/01/11 06:44:30;;;;;;;17.77;10.13;;;;;;;;;;777062;181;815815;-61
2023/01/11 06:46:55;;;;;;;12.37;7.93;;;;;;;;;;773609;181;918272;-61
2023/01/11 06:49:21;;;;;;;13.10;8.10;;;;;;;;;;768049;181;919079;-61
2023/01/11 06:51:47;;;;;;;18.40;9.37;;;;;;;;;;762016;181;915289;-61
2023/01/11 06:54:13;;;;;;;18.67;9.37;;;;;;;;;;763468;183;918605;-61
2023/01/11 06:56:39;;;;;;;12.90;8.63;;;;;;;;;;768860;181;825733;-62
2023/01/11 06:59:05;;;;;;;19.40;10.00;;;;;;;;;;770418;181;919427;-62
2023/01/11 07:01:31;;;;;;;18.20;10.20;;;;;;;;;;767924;180;816541;-68
2023/01/11 07:03:56;;;;;;;17.07;10.30;;;;;;;;;;771176;181;919485;-62
2023/01/11 07:06:23;;;;;;;86.47;36.40;;;;;;;;;;774088;180;923979;-67
2023/01/11 07:08:48;;;;;;;30.83;18.30;;;;;;;;;;775458;180;911315;-62
2023/01/11 07:11:14;;;;;;;178.03;68.23;;;;;;;;;;774197;181;818329;-67
2023/01/11 07:13:40;;;;;;;64.80;31.77;;;;;;;;;;765708;181;919594;-62
2023/01/11 07:16:06;;;;;;;105.80;41.77;;;;;;;;;;759756;184;917722;-62
2023/01/11 07:18:32;;;;;;;83.93;37.67;;;;;;;;;;763759;182;919710;-67
2023/01/11 07:20:57;;;;;;;80.75;26.40;;;;;;;;;;775153;179;916490;-62
2023/01/11 07:23:23;;;;;;;59.47;29.20;;;;;;;;;;776947;181;919670;-62
2023/01/11 07:25:49;;;;;;;59.00;27.83;;;;;;;;;;773876;181;917766;-62
2023/01/11 07:28:15;;;;;;;59.73;25.77;;;;;;;;;;772306;180;946498;-62
2023/01/11 07:30:41;;;;;;;62.60;31.57;;;;;;;;;;767263;180;920773;-68
2023/01/11 07:33:09;;;;;;;53.03;24.80;;;;;;;;;;762228;182;919622;-69
2023/01/11 07:35:33;;;;;;;40.05;19.85;;;;;;;;;;768969;179;919366;-68
2023/01/11 07:37:58;;;;;;;43.93;19.97;;;;;;;;;;757984;181;1018067;-68
2023/01/11 07:40:24;;;;;;;40.20;21.47;;;;;;;;;;775775;182;912506;-61
2023/01/11 07:45:22;;;;;;;36.90;21.40;;;;;;;;;;766989;181;919186;-62
2023/01/11 07:47:49;;;;;;;45.58;22.77;;;;;;;;;;770631;181;920629;-62
2023/01/11 07:50:15;;;;;;;40.30;23.40;;;;;;;;;;774043;176;934220;-68
2023/01/11 07:52:41;;;;;;;45.47;23.50;;;;;;;;;;770602;182;918806;-62
2023/01/11 07:55:07;;;;;;;52.67;26.87;;;;;;;;;;764336;182;918950;-68
2023/01/11 07:57:33;;;;;;;48.13;24.47;;;;;;;;;;773269;181;918942;-62
2023/01/11 07:59:58;;;;;;;43.00;25.47;;;;;;;;;;765654;181;918821;-67
2023/01/11 08:02:25;;;;;;;43.53;21.00;;;;;;;;;;767973;183;919058;-67
2023/01/11 08:04:51;;;;;;;36.00;20.67;;;;;;;;;;768762;182;919118;-61
2023/01/11 08:07:17;;;;;;;39.23;20.00;;;;;;;;;;763915;181;919651;-68
2023/01/11 08:09:43;;;;;;;40.40;22.03;;;;;;;;;;767378;180;919417;-68
2023/01/11 08:14:40;;;;;;;34.57;17.30;;;;;;;;;;770289;182;917362;-70
2023/01/11 08:17:11;;;;;;;26.20;15.50;;;;;;;;;;762872;180;920172;-64
2023/01/11 08:19:37;;;;;;;25.53;14.30;;;;;;;;;;763977;182;900541;-70
2023/01/11 08:22:03;;;;;;;21.33;13.43;;;;;;;;;;773675;180;915048;-63
2023/01/11 08:24:29;;;;;;;16.17;12.17;;;;;;;;;;771739;179;919573;-62
2023/01/11 08:26:55;;;;;;;18.57;11.70;;;;;;;;;;760869;182;910212;-61
2023/01/11 08:29:20;;;;;;;16.40;11.87;;;;;;;;;;767141;180;919297;-61
2023/01/11 08:31:46;;;;;;;14.60;11.10;;;;;;;;;;777514;180;922699;-67
2023/01/11 08:34:12;;;;;;;17.63;11.73;;;;;;;;;;770735;180;920525;-67
2023/01/11 08:36:38;;;;;;;17.10;11.40;;;;;;;;;;772893;181;917492;-65
2023/01/11 08:39:04;;;;;;;18.43;12.07;;;;;;;;;;777657;181;921080;-65
2023/01/11 08:41:31;;;;;;;18.20;10.10;;;;;;;;;;775207;181;921538;-59
2023/01/11 08:43:56;;;;;;;15.43;9.20;;;;;;;;;;773452;181;918122;-59
2023/01/11 08:46:22;;;;;;;15.18;8.20;;;;;;;;;;774617;180;917507;-64
2023/01/11 08:48:49;;;;;;;11.60;8.60;;;;;;;;;;781626;179;882646;-63
2023/01/11 08:51:14;;;;;;;11.23;7.50;;;;;;;;;;773298;180;913617;-60
2023/01/11 08:53:40;;;;;;;13.23;9.03;;;;;;;;;;772195;179;919114;-60
2023/01/11 08:56:06;;;;;;;11.47;8.27;;;;;;;;;;774680;180;1020141;-60
2023/01/11 08:58:32;;;;;;;15.47;9.17;;;;;;;;;;771181;181;918921;-60
2023/01/11 09:01:01;;;;;;;15.10;9.80;;;;;;;;;;755633;182;918368;-64
2023/01/11 09:03:24;;;;;;;16.77;9.80;;;;;;;;;;759519;186;918779;-64
2023/01/11 09:05:50;;;;;;;18.07;10.73;;;;;;;;;;769641;182;920438;-63
2023/01/11 09:08:16;;;;;;;18.43;10.70;;;;;;;;;;772438;180;922572;-63
2023/01/11 09:10:43;;;;;;;15.40;9.63;;;;;;;;;;774936;182;906649;-60
2023/01/11 09:13:08;;;;;;;14.37;9.80;;;;;;;;;;777212;180;823263;-59
2023/01/11 09:15:34;;;;;;;13.97;9.47;;;;;;;;;;765997;182;918891;-59
2023/01/11 09:18:01;;;;;;;16.92;9.60;;;;;;;;;;763067;182;918144;-64
2023/01/11 09:20:26;;;;;;;17.10;10.40;;;;;;;;;;762242;183;918308;-64
2023/01/11 09:22:52;;;;;;;13.13;9.10;;;;;;;;;;754774;186;906176;-59
2023/01/11 09:25:18;;;;;;;17.30;10.00;;;;;;;;;;764898;182;811052;-59
2023/01/11 09:27:44;;;;;;;14.13;10.67;;;;;;;;;;774497;183;919443;-64
2023/01/11 09:30:11;;;;;;;14.87;9.07;;;;;;;;;;770288;182;920100;-59
2023/01/11 09:32:37;;;;;;;16.80;9.40;;;;;;;;;;773033;182;918970;-64
2023/01/11 09:35:03;;;;;;;17.52;9.18;;;;;;;;;;766019;182;918390;-60
2023/01/11 09:37:29;;;;;;;14.33;8.23;;;;;;;;;;761771;182;833322;-66
2023/01/11 09:39:56;;;;;;;13.43;8.57;;;;;;;;;;771683;181;899018;-64
2023/01/11 09:42:31;;;;;;;15.40;8.98;;;;;;;;;;767373;179;1001122;-64
2023/01/11 09:44:53;;;;;;;13.50;8.30;;;;;;;;;;774934;181;910986;-60
2023/01/11 09:47:21;;;;;;;11.83;8.20;;;;;;;;;;764763;181;815199;-60
2023/01/11 09:49:48;;;;;;;15.10;8.50;;;;;;;;;;769435;181;919388;-60
2023/01/11 09:52:13;;;;;;;9.47;7.43;;;;;;;;;;769544;181;918149;-60
2023/01/11 09:54:39;;;;;;;14.33;7.40;;;;;;;;;;771452;181;918840;-59
2023/01/11 09:57:05;;;;;;;12.40;7.63;;;;;;;;;;770995;181;919098;-59
2023/01/11 09:59:33;;;;;;;11.83;7.07;;;;;;;;;;767938;181;1021753;-65
2023/01/11 10:02:04;;;;;;;12.30;7.67;;;;;;;;;;770296;182;916456;-60
2023/01/11 10:04:36;;;;;;;10.33;7.27;;;;;;;;;;758447;182;822282;-60
2023/01/11 10:07:18;;;;;;;11.87;8.30;;;;;;;;;;768812;181;919168;-61
2023/01/11 10:09:50;;;;;;;16.10;8.80;;;;;;;;;;773414;177;919045;-65
2023/01/11 10:12:22;;;;;;;11.77;8.00;;;;;;;;;;771019;182;919136;-61
2023/01/11 10:14:48;;;;;;;12.30;8.97;;;;;;;;;;771194;179;884920;-61
2023/01/11 10:17:20;;;;;;;20.90;8.73;;;;;;;;;;776285;182;918007;-66
2023/01/11 10:19:48;;;;;;;9.60;7.37;;;;;;;;;;766279;182;918723;-66
2023/01/11 10:22:16;;;;;;;17.20;8.23;;;;;;;;;;761056;183;919034;-61
2023/01/11 10:24:42;;;;;;;12.97;7.73;;;;;;;;;;746753;185;817512;-61
2023/01/11 10:27:09;;;;;;;11.37;7.70;;;;;;;;;;766225;181;918042;-67
2023/01/11 10:42:44;;;;;;;11.80;6.60;;;;;;;;;;755651;185;918749;-62
2023/01/11 10:45:12;;;;;;;11.87;7.30;;;;;;;;;;762539;182;918733;-67
2023/01/11 10:47:40;;;;;;;9.60;6.37;;;;;;;;;;769549;181;921657;-61
2023/01/11 10:50:11;;;;;;;10.27;5.70;;;;;;;;;;765053;183;918450;-67
2023/01/11 10:52:40;;;;;;;11.30;7.00;;;;;;;;;;765937;182;920159;-66
2023/01/11 10:55:11;;;;;;;15.20;8.20;;;;;;;;;;777469;180;919342;-66
2023/01/11 10:57:41;;;;;;;11.97;7.40;;;;;;;;;;773247;180;920275;-66
2023/01/11 11:00:13;;;;;;;13.50;8.80;;;;;;;;;;769887;181;920219;-66
2023/01/11 11:02:54;;;;;;;16.00;8.80;;;;;;;;;;755339;181;917556;-66
2023/01/11 11:05:37;;;;;;;12.60;9.00;;;;;;;;;;766496;182;919060;-61
2023/01/11 11:08:21;;;;;;;16.10;6.77;;;;;;;;;;765802;180;919206;-61
2023/01/11 11:10:45;;;;;;;12.83;8.20;;;;;;;;;;760811;181;918878;-61
2023/01/11 11:13:11;;;;;;;13.13;8.20;;;;;;;;;;777563;180;919011;-66
2023/01/11 11:15:38;;;;;;;10.20;7.97;;;;;;;;;;773125;180;918917;-65
2023/01/11 11:18:04;;;;;;;10.83;6.60;;;;;;;;;;771058;182;919375;-66
2023/01/11 11:20:30;;;;;;;11.43;7.40;;;;;;;;;;775669;181;918972;-61
2023/01/11 11:22:56;;;;;;;9.40;6.43;;;;;;;;;;772500;181;915272;-65
2023/01/11 11:25:36;;;;;;;12.43;8.23;;;;;;;;;;766342;182;815156;-61
2023/01/11 11:28:03;;;;;;;11.90;7.13;;;;;;;;;;770003;180;919270;-65
2023/01/11 11:30:33;;;;;;;9.90;7.00;;;;;;;;;;771517;181;919410;-65
2023/01/11 11:32:59;;;;;;;10.00;7.30;;;;;;;;;;776072;182;919456;-65
2023/01/11 11:35:28;;;;;;;12.67;5.30;;;;;;;;;;764557;182;929004;-61
2023/01/11 11:37:54;;;;;;;13.93;6.60;;;;;;;;;;753975;186;920550;-65
2023/01/11 11:40:26;;;;;;;11.73;7.00;;;;;;;;;;770052;182;818136;-60
2023/01/11 11:42:52;;;;;;;8.03;4.90;;;;;;;;;;777350;181;922013;-66
2023/01/11 11:45:18;;;;;;;3.57;2.30;;;;;;;;;;770078;182;916424;-60
2023/01/11 11:47:43;;;;;;;8.73;3.43;;;;;;;;;;764854;182;816636;-65
2023/01/11 11:50:25;;;;;;;6.40;3.77;;;;;;;;;;766329;182;883927;-65
2023/01/11 11:52:52;;;;;;;6.33;4.50;;;;;;;;;;772980;183;814812;-60
2023/01/11 11:55:18;;;;;;;6.27;4.17;;;;;;;;;;765293;183;819490;-60
2023/01/11 11:57:44;;;;;;;6.57;4.63;;;;;;;;;;765716;182;915312;-65
2023/01/11 12:00:11;;;;;;;8.90;5.47;;;;;;;;;;773115;182;815859;-65
2023/01/11 12:02:37;;;;;;;8.90;6.00;;;;;;;;;;759052;186;919065;-67
2023/01/11 12:05:03;;;;;;;6.40;5.10;;;;;;;;;;765084;181;917255;-60
2023/01/11 12:07:29;;;;;;;8.70;4.73;;;;;;;;;;774212;179;979433;-65
2023/01/11 12:09:56;;;;;;;7.20;4.17;;;;;;;;;;780693;180;909973;-60
2023/01/11 12:12:22;;;;;;;6.80;4.20;;;;;;;;;;764214;179;918599;-62
2023/01/11 12:14:53;;;;;;;6.03;4.57;;;;;;;;;;755934;184;1123076;-60
2023/01/11 12:17:21;;;;;;;6.00;4.10;;;;;;;;;;764935;181;918939;-60
2023/01/11 12:19:47;;;;;;;6.97;3.20;;;;;;;;;;750059;187;917302;-60
2023/01/11 12:22:17;;;;;;;6.60;3.30;;;;;;;;;;756253;182;919329;-61
2023/01/11 12:24:42;;;;;;;6.50;3.87;;;;;;;;;;769466;182;919533;-61
2023/01/11 12:27:11;;;;;;;3.97;2.80;;;;;;;;;;776956;182;918720;-61
2023/01/11 12:29:41;;;;;;;3.10;2.10;;;;;;;;;;772186;179;915746;-60
2023/01/11 12:32:10;;;;;;;6.87;2.85;;;;;;;;;;772807;180;923359;-66
2023/01/11 12:34:35;;;;;;;4.87;3.13;;;;;;;;;;773522;182;906709;-66
2023/01/11 12:37:04;;;;;;;5.37;3.40;;;;;;;;;;775676;181;917069;-66
2023/01/11 12:39:47;;;;;;;4.50;3.30;;;;;;;;;;771289;179;1023168;-61
2023/01/11 12:42:27;;;;;;;6.60;3.20;;;;;;;;;;763625;182;817175;-61
2023/01/11 12:44:53;;;;;;;10.40;3.80;;;;;;;;;;773894;179;816804;-61
2023/01/11 12:47:25;;;;;;;7.82;3.45;;;;;;;;;;762894;182;817807;-66
2023/01/11 12:49:54;;;;;;;5.90;3.40;;;;;;;;;;769011;182;919549;-66
2023/01/11 12:52:39;;;;;;;9.80;3.47;;;;;;;;;;775269;179;914667;-66
2023/01/11 12:55:21;;;;;;;4.80;3.53;;;;;;;;;;776543;179;918859;-61
2023/01/11 13:00:20;;;;;;;7.60;3.63;;;;;;;;;;772698;179;904905;-67
2023/01/11 13:02:48;;;;;;;8.30;3.63;;;;;;;;;;768289;182;917326;-61
2023/01/11 13:05:31;;;;;;;9.02;4.43;;;;;;;;;;768065;181;917034;-62
2023/01/11 13:08:02;;;;;;;8.93;4.00;;;;;;;;;;765574;181;917988;-67
2023/01/11 13:10:29;;;;;;;6.70;3.73;;;;;;;;;;761695;180;913026;-67
2023/01/11 13:12:55;;;;;;;7.83;3.10;;;;;;;;;;777984;182;816006;-61
2023/01/11 13:15:22;;;;;;;5.22;3.22;;;;;;;;;;771041;181;940700;-67
2023/01/11 13:17:52;;;;;;;10.53;3.50;;;;;;;;;;774444;179;865859;-62
2023/01/11 13:20:24;;;;;;;7.60;4.07;;;;;;;;;;777197;180;816735;-62
2023/01/11 13:22:50;;;;;;;6.67;3.97;;;;;;;;;;776752;181;919529;-67
2023/01/11 13:25:16;;;;;;;8.00;4.67;;;;;;;;;;772837;181;940415;-61
2023/01/11 13:27:42;;;;;;;6.33;4.13;;;;;;;;;;769275;180;918418;-67
2023/01/11 13:30:08;;;;;;;6.50;4.80;;;;;;;;;;763528;182;919747;-69
2023/01/11 13:32:37;;;;;;;10.30;5.50;;;;;;;;;;770642;182;920326;-67
2023/01/11 13:35:06;;;;;;;6.90;3.97;;;;;;;;;;771074;181;921155;-62
2023/01/11 13:37:35;;;;;;;6.35;4.32;;;;;;;;;;774158;180;918895;-67
2023/01/11 13:40:02;;;;;;;5.20;4.10;;;;;;;;;;756977;182;907284;-61
2023/01/11 13:42:30;;;;;;;6.47;4.62;;;;;;;;;;766325;181;816542;-61
2023/01/11 13:44:56;;;;;;;8.73;5.00;;;;;;;;;;773455;180;920848;-61
2023/01/11 13:47:23;;;;;;;10.32;4.07;;;;;;;;;;777651;182;807445;-61
2023/01/11 13:49:53;;;;;;;8.20;4.60;;;;;;;;;;775078;180;808376;-62
2023/01/11 13:52:19;;;;;;;6.45;3.53;;;;;;;;;;763686;182;1026679;-67
2023/01/11 13:54:48;;;;;;;6.40;4.80;;;;;;;;;;764151;180;948343;-68
2023/01/11 13:57:16;;;;;;;6.93;3.77;;;;;;;;;;770854;181;819493;-68
2023/01/11 13:59:44;;;;;;;7.30;4.60;;;;;;;;;;768372;181;922583;-67
2023/01/11 14:02:13;;;;;;;12.23;4.13;;;;;;;;;;769490;179;922277;-61
2023/01/11 14:04:40;;;;;;;8.90;4.20;;;;;;;;;;769464;180;919587;-61
2023/01/11 14:07:11;;;;;;;8.30;4.73;;;;;;;;;;777246;182;817301;-67
2023/01/11 14:09:54;;;;;;;9.63;4.73;;;;;;;;;;770864;181;919636;-67
2023/01/11 14:12:36;;;;;;;11.80;5.93;;;;;;;;;;768087;178;917817;-61
2023/01/11 14:15:08;;;;;;;8.60;4.90;;;;;;;;;;764035;182;919573;-61
2023/01/11 14:17:37;;;;;;;15.70;5.90;;;;;;;;;;759604;181;919078;-68
2023/01/11 14:20:17;;;;;;;8.77;5.40;;;;;;;;;;757983;181;920281;-67
2023/01/11 14:22:47;;;;;;;9.97;5.10;;;;;;;;;;766753;181;918955;-61
2023/01/11 14:25:14;;;;;;;7.63;5.10;;;;;;;;;;763410;183;884971;-61
2023/01/11 14:27:45;;;;;;;8.13;5.10;;;;;;;;;;767539;181;919348;-67
2023/01/11 14:30:17;;;;;;;8.70;4.10;;;;;;;;;;770480;181;919313;-60
2023/01/11 14:32:44;;;;;;;8.70;4.30;;;;;;;;;;772780;181;917844;-67
2023/01/11 14:35:15;;;;;;;9.70;4.80;;;;;;;;;;765370;183;921071;-67
2023/01/11 14:37:45;;;;;;;7.40;5.20;;;;;;;;;;758239;184;918855;-61
2023/01/11 14:40:29;;;;;;;12.73;7.17;;;;;;;;;;769081;181;919283;-61
2023/01/11 14:42:58;;;;;;;9.93;5.40;;;;;;;;;;774364;177;918028;-67
2023/01/11 14:45:30;;;;;;;10.27;5.57;;;;;;;;;;769818;180;913905;-67
2023/01/11 14:48:05;;;;;;;9.25;4.93;;;;;;;;;;773142;181;918809;-67
2023/01/11 14:50:47;;;;;;;10.00;5.33;;;;;;;;;;772562;182;919184;-61
2023/01/11 14:53:13;;;;;;;8.43;4.70;;;;;;;;;;779240;179;817499;-67
2023/01/11 14:55:48;;;;;;;6.43;3.90;;;;;;;;;;767150;182;919506;-61
2023/01/11 14:58:16;;;;;;;10.40;5.90;;;;;;;;;;765204;182;919968;-62
2023/01/11 15:00:55;;;;;;;12.97;6.83;;;;;;;;;;771471;181;918454;-67